createdAt,value
2023-06-30T00:00:26.997Z,1.70
2023-06-30T00:05:21.130Z,3.30
2023-06-30T00:07:48.490Z,2.83
2023-06-30T00:10:15.386Z,2.72
2023-06-30T00:12:42.291Z,2.60
2023-06-30T00:15:09.524Z,2.80
2023-06-30T00:17:36.813Z,2.90
2023-06-30T00:20:07.277Z,2.97
2023-06-30T00:22:37.739Z,2.70
2023-06-30T00:25:05.792Z,2.95
2023-06-30T00:27:33.165Z,2.87
2023-06-30T00:30:00.079Z,2.90
2023-06-30T00:32:29.153Z,2.50
2023-06-30T00:34:56.045Z,2.70
2023-06-30T00:37:23.045Z,2.33
2023-06-30T00:39:54.907Z,2.65
2023-06-30T00:42:23.598Z,3.15
2023-06-30T00:44:50.530Z,2.55
2023-06-30T00:47:17.920Z,2.25
2023-06-30T00:49:45.473Z,2.25
2023-06-30T00:52:13.222Z,2.92
2023-06-30T00:54:40.528Z,2.10
2023-06-30T00:57:08.135Z,2.58
2023-06-30T00:59:35.120Z,2.70
2023-06-30T01:05:14.551Z,2.80
2023-06-30T01:07:52.546Z,2.37
2023-06-30T01:10:24.216Z,2.22
2023-06-30T01:12:52.087Z,2.03
2023-06-30T01:15:19.945Z,2.37
2023-06-30T01:17:51.520Z,2.30
2023-06-30T01:20:22.400Z,2.35
2023-06-30T01:22:55.866Z,2.42
2023-06-30T01:25:29.837Z,2.15
2023-06-30T01:27:57.641Z,2.35
2023-06-30T01:30:25.342Z,2.60
2023-06-30T01:32:56.485Z,2.50
2023-06-30T01:35:24.628Z,2.65
2023-06-30T01:37:52.318Z,2.37
2023-06-30T01:40:19.619Z,2.80
2023-06-30T01:42:48.933Z,2.92
2023-06-30T01:45:17.834Z,2.17
2023-06-30T01:47:45.148Z,2.03
2023-06-30T01:50:12.712Z,2.00
2023-06-30T01:52:39.845Z,1.65
2023-06-30T01:55:07.260Z,1.62
2023-06-30T01:57:34.298Z,2.00
2023-06-30T02:00:01.658Z,2.33
2023-06-30T02:02:28.645Z,2.17
2023-06-30T02:04:55.616Z,2.30
2023-06-30T02:07:32.025Z,2.25
2023-06-30T02:09:59.169Z,2.62
2023-06-30T02:12:32.454Z,2.60
2023-06-30T02:14:59.512Z,2.60
2023-06-30T02:18:14.928Z,3.37
2023-06-30T02:20:41.830Z,2.00
2023-06-30T02:23:08.724Z,2.58
2023-06-30T02:25:35.752Z,2.58
2023-06-30T02:28:02.640Z,4.18
2023-06-30T02:30:29.671Z,3.58
2023-06-30T02:32:56.620Z,2.90
2023-06-30T02:35:24.269Z,3.42
2023-06-30T02:37:51.470Z,3.53
2023-06-30T02:40:18.436Z,2.47
2023-06-30T02:42:45.464Z,2.90
2023-06-30T02:45:12.440Z,2.95
2023-06-30T02:47:40.337Z,2.87
2023-06-30T02:50:07.771Z,2.97
2023-06-30T02:52:34.675Z,3.12
2023-06-30T02:55:01.781Z,2.72
2023-06-30T02:57:28.703Z,3.33
2023-06-30T02:59:55.612Z,3.05
2023-06-30T03:02:35.634Z,3.30
2023-06-30T03:05:02.825Z,3.20
2023-06-30T03:07:29.782Z,3.10
2023-06-30T03:09:56.844Z,2.75
2023-06-30T03:12:23.804Z,2.58
2023-06-30T03:14:50.954Z,2.40
2023-06-30T03:17:17.927Z,3.40
2023-06-30T03:19:44.847Z,2.60
2023-06-30T03:22:11.807Z,2.95
2023-06-30T03:24:38.725Z,2.90
2023-06-30T03:27:06.070Z,2.60
2023-06-30T03:29:33.009Z,2.85
2023-06-30T03:32:00.134Z,2.85
2023-06-30T03:34:27.069Z,2.60
2023-06-30T03:36:54.022Z,3.12
2023-06-30T03:39:20.976Z,2.97
2023-06-30T03:41:48.808Z,2.40
2023-06-30T03:44:38.846Z,3.10
2023-06-30T03:47:06.575Z,2.30
2023-06-30T04:03:52.646Z,2.95
2023-06-30T04:06:19.772Z,3.00
2023-06-30T04:08:47.127Z,3.00
2023-06-30T04:11:14.467Z,2.78
2023-06-30T04:13:41.337Z,3.10
2023-06-30T04:16:09.017Z,3.10
2023-06-30T04:18:36.042Z,4.00
2023-06-30T04:21:02.973Z,3.00
2023-06-30T04:23:29.969Z,2.55
2023-06-30T04:25:56.942Z,2.40
2023-06-30T04:28:23.808Z,2.30
2023-06-30T04:30:50.769Z,2.67
2023-06-30T04:33:17.714Z,2.12
2023-06-30T04:35:47.686Z,3.10
2023-06-30T04:38:14.884Z,2.78
2023-06-30T04:40:41.827Z,2.50
2023-06-30T04:43:13.891Z,2.58
2023-06-30T04:45:40.983Z,2.40
2023-06-30T04:48:08.937Z,3.53
2023-06-30T04:50:37.105Z,3.10
2023-06-30T04:53:04.032Z,2.53
2023-06-30T04:55:31.037Z,2.47
2023-06-30T04:57:58.035Z,2.67
2023-06-30T05:00:25.936Z,2.67
2023-06-30T05:02:52.948Z,2.55
2023-06-30T05:05:20.189Z,2.42
2023-06-30T05:07:47.952Z,2.65
2023-06-30T05:10:15.022Z,2.75
2023-06-30T05:12:41.922Z,3.47
2023-06-30T05:15:09.470Z,3.37
2023-06-30T05:17:36.786Z,3.12
2023-06-30T05:20:06.589Z,3.42
2023-06-30T05:22:33.506Z,3.15
2023-06-30T05:25:00.398Z,3.28
2023-06-30T05:27:27.335Z,3.53
2023-06-30T05:29:54.286Z,3.28
2023-06-30T05:32:21.274Z,3.67
2023-06-30T05:34:48.206Z,3.28
2023-06-30T05:37:15.322Z,3.20
2023-06-30T05:39:42.299Z,3.05
2023-06-30T05:42:09.442Z,2.67
2023-06-30T05:44:36.703Z,2.70
2023-06-30T05:47:03.842Z,2.83
2023-06-30T05:49:33.361Z,2.85
2023-06-30T05:54:27.149Z,3.53
2023-06-30T05:56:54.026Z,3.08
2023-06-30T05:59:21.010Z,2.78
2023-06-30T06:01:47.962Z,2.58
2023-06-30T06:04:14.968Z,2.83
2023-06-30T06:06:42.056Z,2.55
2023-06-30T06:09:09.024Z,2.33
2023-06-30T06:11:35.861Z,2.10
2023-06-30T06:14:02.846Z,2.47
2023-06-30T06:16:29.805Z,2.80
2023-06-30T06:18:57.327Z,2.65
2023-06-30T06:21:28.775Z,2.80
2023-06-30T06:24:05.129Z,2.50
2023-06-30T06:26:32.161Z,5.50
2023-06-30T06:28:59.499Z,2.95
2023-06-30T06:31:31.125Z,2.80
2023-06-30T06:33:58.286Z,2.00
2023-06-30T06:36:25.278Z,2.70
2023-06-30T06:38:52.356Z,1.77
2023-06-30T06:41:19.312Z,2.12
2023-06-30T06:43:46.540Z,1.98
2023-06-30T06:46:14.564Z,2.33
2023-06-30T06:48:41.813Z,2.55
2023-06-30T06:51:08.913Z,2.15
2023-06-30T06:53:40.600Z,2.05
2023-06-30T06:56:07.577Z,2.25
2023-06-30T06:58:36.939Z,2.00
2023-06-30T07:01:03.974Z,2.03
2023-06-30T07:03:31.086Z,2.20
2023-06-30T07:05:59.177Z,2.22
2023-06-30T07:08:26.749Z,2.10
2023-06-30T07:10:53.909Z,2.30
2023-06-30T07:13:22.654Z,2.65
2023-06-30T07:15:50.327Z,2.25
2023-06-30T07:18:21.247Z,1.95
2023-06-30T07:20:52.690Z,2.12
2023-06-30T07:23:20.089Z,2.42
2023-06-30T07:25:48.421Z,2.45
2023-06-30T07:28:15.830Z,2.28
2023-06-30T07:30:46.717Z,2.33
2023-06-30T07:33:14.344Z,2.47
2023-06-30T07:35:45.143Z,2.37
2023-06-30T07:38:12.717Z,2.10
2023-06-30T07:40:55.148Z,2.20
2023-06-30T07:43:23.552Z,2.45
2023-06-30T07:45:53.362Z,2.58
2023-06-30T07:48:20.646Z,3.10
2023-06-30T07:50:59.524Z,2.15
2023-06-30T07:53:37.093Z,2.83
2023-06-30T07:56:04.212Z,2.60
2023-06-30T07:58:34.097Z,2.55
2023-06-30T08:01:01.166Z,2.58
2023-06-30T08:03:29.554Z,2.60
2023-06-30T08:05:58.240Z,2.37
2023-06-30T08:08:25.470Z,2.50
2023-06-30T08:10:52.532Z,3.42
2023-06-30T08:13:19.550Z,2.87
2023-06-30T08:15:49.121Z,2.75
2023-06-30T08:18:31.696Z,2.60
2023-06-30T08:21:01.045Z,2.55
2023-06-30T08:23:28.185Z,2.70
2023-06-30T08:25:56.645Z,2.67
2023-06-30T08:28:23.836Z,2.35
2023-06-30T08:30:51.670Z,2.75
2023-06-30T08:33:30.748Z,2.67
2023-06-30T08:36:06.151Z,3.12
2023-06-30T08:38:33.174Z,2.33
2023-06-30T08:41:01.990Z,2.65
2023-06-30T08:46:02.907Z,2.40
2023-06-30T08:48:32.029Z,2.60
2023-06-30T08:51:00.526Z,2.85
2023-06-30T08:53:30.651Z,2.45
2023-06-30T08:56:01.000Z,2.60
2023-06-30T08:58:31.181Z,2.87
2023-06-30T09:00:58.449Z,2.60
2023-06-30T09:03:25.809Z,2.30
2023-06-30T09:05:56.704Z,2.72
2023-06-30T09:08:28.662Z,2.53
2023-06-30T09:10:57.335Z,2.20
2023-06-30T09:13:25.524Z,2.42
2023-06-30T09:15:56.863Z,2.33
2023-06-30T09:18:27.102Z,2.03
2023-06-30T09:20:54.596Z,2.60
2023-06-30T09:23:21.728Z,2.45
2023-06-30T09:25:49.290Z,2.15
2023-06-30T09:28:17.486Z,2.00
2023-06-30T09:30:46.820Z,2.08
2023-06-30T09:33:22.149Z,2.08
2023-06-30T09:35:49.925Z,2.22
2023-06-30T09:38:19.731Z,2.00
2023-06-30T09:40:49.508Z,2.22
2023-06-30T09:43:18.583Z,1.98
2023-06-30T09:45:56.198Z,1.73
2023-06-30T09:48:46.702Z,2.50
2023-06-30T09:51:20.666Z,1.70
2023-06-30T09:53:48.102Z,2.30
2023-06-30T09:56:25.518Z,2.70
2023-06-30T09:58:58.575Z,2.10
2023-06-30T10:01:25.852Z,2.42
2023-06-30T10:03:56.525Z,2.20
2023-06-30T10:06:28.098Z,2.62
2023-06-30T10:08:59.090Z,2.00
2023-06-30T10:11:32.068Z,1.90
2023-06-30T10:14:00.765Z,2.25
2023-06-30T10:18:57.321Z,2.03
2023-06-30T10:21:24.453Z,2.17
2023-06-30T10:23:52.342Z,2.05
2023-06-30T10:26:23.105Z,1.90
2023-06-30T10:28:52.458Z,1.83
2023-06-30T10:31:19.538Z,2.08
2023-06-30T10:33:49.707Z,2.00
2023-06-30T10:36:19.120Z,1.70
2023-06-30T10:38:48.302Z,2.00
2023-06-30T10:41:21.317Z,2.22
2023-06-30T10:44:03.655Z,1.77
2023-06-30T10:46:49.084Z,2.15
2023-06-30T10:49:19.168Z,1.95
2023-06-30T10:51:51.312Z,1.67
2023-06-30T10:54:31.571Z,2.47
2023-06-30T10:57:13.082Z,2.15
2023-06-30T10:59:43.022Z,1.90
2023-06-30T11:02:19.113Z,1.70
2023-06-30T11:04:47.857Z,2.17
2023-06-30T11:09:48.909Z,1.70
2023-06-30T11:12:20.256Z,1.55
2023-06-30T11:15:05.072Z,2.00
2023-06-30T11:18:00.786Z,1.95
2023-06-30T11:20:33.954Z,1.90
2023-06-30T11:23:06.945Z,1.58
2023-06-30T11:25:40.711Z,2.08
2023-06-30T11:28:10.360Z,1.75
2023-06-30T11:30:40.075Z,2.33
2023-06-30T11:33:08.570Z,1.98
2023-06-30T11:35:37.197Z,1.73
2023-06-30T11:41:11.359Z,2.12
2023-06-30T11:44:11.768Z,2.25
2023-06-30T11:46:58.754Z,1.67
2023-06-30T11:49:44.117Z,2.12
2023-06-30T11:52:11.409Z,1.60
2023-06-30T11:54:44.052Z,1.92
2023-06-30T11:57:11.403Z,1.37
2023-06-30T11:59:41.416Z,1.80
2023-06-30T12:02:11.709Z,1.70
2023-06-30T12:04:48.326Z,1.73
2023-06-30T12:07:25.150Z,1.80
2023-06-30T12:10:07.785Z,2.10
2023-06-30T12:12:34.904Z,2.28
2023-06-30T12:15:17.544Z,2.45
2023-06-30T12:17:44.764Z,2.12
2023-06-30T12:20:12.925Z,2.67
2023-06-30T12:22:46.077Z,1.77
2023-06-30T12:25:13.413Z,1.92
2023-06-30T12:27:43.562Z,2.20
2023-06-30T12:30:18.390Z,2.08
2023-06-30T12:32:46.215Z,1.83
2023-06-30T12:35:13.711Z,2.57
2023-06-30T12:37:40.790Z,2.08
2023-06-30T12:40:09.627Z,2.37
2023-06-30T12:42:40.106Z,1.73
2023-06-30T12:45:07.952Z,2.37
2023-06-30T12:47:35.102Z,2.47
2023-06-30T12:50:02.016Z,4.75
2023-06-30T12:52:29.103Z,2.30
2023-06-30T12:54:56.334Z,6.30
2023-06-30T12:57:23.309Z,3.42
2023-06-30T12:59:50.298Z,3.60
2023-06-30T13:02:17.272Z,2.97
2023-06-30T13:04:44.286Z,2.97
2023-06-30T13:07:11.249Z,2.12
2023-06-30T13:09:38.255Z,2.00
2023-06-30T13:12:09.061Z,3.33
2023-06-30T13:14:36.077Z,2.22
2023-06-30T13:17:03.164Z,2.92
2023-06-30T13:19:30.218Z,2.58
2023-06-30T13:21:57.247Z,2.33
2023-06-30T13:24:27.716Z,2.30
2023-06-30T13:26:55.766Z,2.70
2023-06-30T13:29:22.873Z,2.50
2023-06-30T13:31:50.334Z,2.33
2023-06-30T13:34:17.656Z,2.17
2023-06-30T13:36:44.722Z,2.50
2023-06-30T13:39:15.201Z,2.78
2023-06-30T13:41:44.635Z,2.37
2023-06-30T13:44:11.816Z,2.90
2023-06-30T13:46:40.334Z,2.58
2023-06-30T13:49:07.619Z,2.30
2023-06-30T13:51:38.603Z,2.42
2023-06-30T13:54:05.665Z,2.62
2023-06-30T13:56:32.686Z,2.78
2023-06-30T13:58:59.760Z,2.72
2023-06-30T14:01:28.060Z,2.92
2023-06-30T14:03:56.279Z,3.05
2023-06-30T14:06:23.438Z,2.37
2023-06-30T14:08:50.611Z,2.87
2023-06-30T14:11:19.175Z,3.10
2023-06-30T14:13:46.669Z,2.72
2023-06-30T14:16:13.753Z,3.05
2023-06-30T14:18:40.895Z,2.60
2023-06-30T14:21:07.936Z,2.60
2023-06-30T14:23:34.929Z,2.25
2023-06-30T14:26:02.161Z,2.83
2023-06-30T14:28:29.234Z,3.17
2023-06-30T14:30:56.435Z,3.17
2023-06-30T14:33:23.511Z,3.05
2023-06-30T14:35:50.529Z,2.70
2023-06-30T14:38:18.621Z,2.67
2023-06-30T14:40:47.092Z,2.70
2023-06-30T14:43:14.283Z,3.17
2023-06-30T14:45:41.322Z,2.92
2023-06-30T14:48:09.773Z,2.80
2023-06-30T14:50:37.888Z,3.15
2023-06-30T14:53:05.004Z,3.30
2023-06-30T14:55:32.115Z,2.50
2023-06-30T14:57:59.143Z,3.50
2023-06-30T15:00:26.170Z,3.20
2023-06-30T15:02:53.366Z,3.20
2023-06-30T15:05:20.573Z,3.00
2023-06-30T15:07:48.052Z,2.92
2023-06-30T15:10:15.308Z,3.30
2023-06-30T15:12:42.375Z,3.25
2023-06-30T15:15:09.759Z,3.10
2023-06-30T15:17:37.084Z,3.17
2023-06-30T15:20:04.504Z,3.10
2023-06-30T15:22:32.354Z,3.12
2023-06-30T15:25:00.478Z,2.90
2023-06-30T15:27:27.997Z,3.33
2023-06-30T15:29:55.177Z,2.67
2023-06-30T15:32:22.517Z,2.60
2023-06-30T15:34:49.769Z,3.28
2023-06-30T15:37:16.857Z,3.00
2023-06-30T15:39:43.900Z,2.55
2023-06-30T15:42:11.001Z,2.90
2023-06-30T15:44:38.128Z,3.15
2023-06-30T15:47:05.199Z,2.62
2023-06-30T15:49:32.267Z,2.85
2023-06-30T15:51:59.281Z,3.05
2023-06-30T15:54:26.322Z,2.80
2023-06-30T15:56:53.317Z,3.55
2023-06-30T15:59:20.426Z,3.03
2023-06-30T16:01:47.451Z,3.00
2023-06-30T16:04:14.468Z,3.00
2023-06-30T16:06:41.472Z,3.28
2023-06-30T16:09:08.545Z,2.72
2023-06-30T16:11:35.557Z,2.53
2023-06-30T16:14:02.595Z,3.03
2023-06-30T16:16:30.466Z,2.90
2023-06-30T16:18:57.624Z,3.53
2023-06-30T16:21:24.677Z,2.97
2023-06-30T16:23:51.993Z,3.25
2023-06-30T16:26:21.863Z,3.35
2023-06-30T16:28:49.627Z,2.78
2023-06-30T16:31:16.813Z,2.60
2023-06-30T16:33:44.112Z,2.75
2023-06-30T16:36:11.304Z,3.42
2023-06-30T16:38:40.932Z,3.10
2023-06-30T16:41:08.018Z,3.83
2023-06-30T16:43:35.038Z,2.87
2023-06-30T16:46:02.081Z,3.65
2023-06-30T16:48:29.151Z,3.83
2023-06-30T16:50:56.099Z,2.95
2023-06-30T16:53:24.941Z,2.75
2023-06-30T16:58:19.205Z,3.37
2023-06-30T17:00:46.332Z,3.42
2023-06-30T17:03:13.542Z,3.35
2023-06-30T17:05:40.747Z,3.08
2023-06-30T17:08:07.894Z,3.42
2023-06-30T17:10:35.094Z,3.28
2023-06-30T17:13:04.598Z,3.20
2023-06-30T17:15:32.292Z,2.90
2023-06-30T17:18:00.182Z,3.15
2023-06-30T17:20:27.352Z,3.40
2023-06-30T17:22:54.329Z,3.10
2023-06-30T17:25:21.473Z,3.28
2023-06-30T17:27:48.589Z,3.47
2023-06-30T17:30:15.643Z,3.28
2023-06-30T17:32:42.887Z,3.47
2023-06-30T17:35:10.058Z,2.97
2023-06-30T17:37:37.081Z,4.50
2023-06-30T17:40:04.529Z,3.47
2023-06-30T17:42:31.537Z,3.87
2023-06-30T17:44:58.645Z,2.95
2023-06-30T17:47:25.806Z,3.10
2023-06-30T17:49:52.899Z,3.17
2023-06-30T17:52:19.990Z,3.15
2023-06-30T17:54:47.376Z,2.90
2023-06-30T17:57:14.795Z,3.55
2023-06-30T17:59:41.781Z,4.25
2023-06-30T18:02:08.841Z,3.80
2023-06-30T18:04:36.285Z,3.92
2023-06-30T18:07:06.041Z,3.47
2023-06-30T18:09:34.788Z,2.97
2023-06-30T18:12:02.812Z,3.15
2023-06-30T18:14:31.197Z,3.58
2023-06-30T18:16:59.320Z,3.20
2023-06-30T18:19:26.674Z,3.20
2023-06-30T18:21:54.507Z,2.80
2023-06-30T18:24:22.304Z,3.10
2023-06-30T18:26:49.879Z,2.97
2023-06-30T18:29:18.804Z,2.85
2023-06-30T18:31:45.840Z,3.53
2023-06-30T18:34:12.851Z,3.00
2023-06-30T18:36:39.920Z,2.97
2023-06-30T18:39:06.892Z,2.90
2023-06-30T18:41:34.002Z,2.72
2023-06-30T18:44:00.997Z,2.62
2023-06-30T18:46:30.857Z,3.28
2023-06-30T18:48:58.026Z,3.65
2023-06-30T18:51:29.290Z,2.80
2023-06-30T18:53:57.287Z,2.85
2023-06-30T18:56:24.640Z,3.25
2023-06-30T18:58:58.948Z,3.70
2023-06-30T19:01:27.044Z,2.95
2023-06-30T19:03:54.622Z,3.15
2023-06-30T19:06:24.054Z,3.08
2023-06-30T19:08:51.638Z,3.08
2023-06-30T19:11:18.674Z,3.42
2023-06-30T19:13:45.869Z,3.40
2023-06-30T19:16:13.128Z,3.62
2023-06-30T19:18:40.430Z,3.00
2023-06-30T19:21:11.278Z,3.85
2023-06-30T19:23:39.657Z,3.03
2023-06-30T19:26:06.849Z,3.33
2023-06-30T19:28:34.685Z,2.87
2023-06-30T19:31:01.728Z,3.12
2023-06-30T19:33:35.345Z,3.30
2023-06-30T19:36:02.341Z,3.42
2023-06-30T19:38:29.565Z,3.55
2023-06-30T19:40:57.174Z,3.22
2023-06-30T19:43:24.596Z,3.40
2023-06-30T19:45:52.140Z,3.83
2023-06-30T19:48:23.186Z,4.32
2023-06-30T19:50:50.181Z,3.95
2023-06-30T19:53:17.195Z,3.70
2023-06-30T19:55:44.469Z,4.15
2023-06-30T19:58:11.849Z,4.32
2023-06-30T20:00:39.656Z,4.22
2023-06-30T20:03:07.008Z,4.32
2023-06-30T20:05:34.260Z,9.20
2023-06-30T20:08:01.190Z,7.07
2023-06-30T20:10:28.343Z,10.63
2023-06-30T20:12:55.453Z,9.70
2023-06-30T20:15:22.316Z,7.20
2023-06-30T20:17:49.378Z,6.90
2023-06-30T20:20:16.613Z,5.97
2023-06-30T20:22:43.722Z,5.87
2023-06-30T20:25:11.276Z,4.70
2023-06-30T20:27:40.125Z,4.90
2023-06-30T20:30:10.003Z,5.45
2023-06-30T20:32:36.951Z,4.90
2023-06-30T20:35:04.102Z,4.55
2023-06-30T20:37:31.131Z,4.82
2023-06-30T20:39:58.063Z,4.07
2023-06-30T20:42:25.116Z,4.18
2023-06-30T20:44:52.127Z,3.95
2023-06-30T20:47:19.270Z,3.92
2023-06-30T20:49:46.228Z,4.60
2023-06-30T20:52:14.438Z,4.65
2023-06-30T20:54:41.429Z,3.65
2023-06-30T20:57:08.510Z,4.78
2023-06-30T20:59:35.506Z,4.05
2023-06-30T21:02:03.356Z,3.60
2023-06-30T21:04:30.558Z,3.90
2023-06-30T21:06:57.729Z,3.72
2023-06-30T21:09:24.638Z,3.78
2023-06-30T21:11:51.645Z,4.15
2023-06-30T21:14:21.576Z,3.62
2023-06-30T21:16:49.447Z,3.70
2023-06-30T21:19:17.072Z,4.12
2023-06-30T21:21:44.170Z,3.65
2023-06-30T21:24:11.502Z,3.87
2023-06-30T21:26:39.375Z,4.32
2023-06-30T21:29:06.499Z,4.28
2023-06-30T21:31:33.558Z,4.30
2023-06-30T21:34:00.641Z,4.25
2023-06-30T21:36:27.958Z,3.97
2023-06-30T21:38:55.139Z,4.12
2023-06-30T21:41:23.083Z,4.47
2023-06-30T21:43:50.125Z,4.30
2023-06-30T21:46:17.990Z,3.87
2023-06-30T21:48:45.019Z,4.43
2023-06-30T21:51:12.006Z,4.25
2023-06-30T21:53:39.064Z,4.03
2023-06-30T21:56:06.156Z,4.22
2023-06-30T21:58:33.398Z,3.87
2023-06-30T22:01:00.372Z,4.50
2023-06-30T22:03:27.599Z,4.00
2023-06-30T22:05:56.535Z,4.25
2023-06-30T22:08:26.637Z,3.35
2023-06-30T22:10:53.782Z,3.90
2023-06-30T22:13:20.961Z,3.55
2023-06-30T22:15:48.123Z,4.00
2023-06-30T22:18:15.292Z,4.30
2023-06-30T22:20:42.663Z,4.50
2023-06-30T22:23:09.586Z,4.78
2023-06-30T22:25:36.624Z,4.70
2023-06-30T22:28:03.676Z,4.90
2023-06-30T22:30:30.643Z,5.18
2023-06-30T22:32:58.025Z,4.30
2023-06-30T22:35:24.964Z,4.12
2023-06-30T22:37:53.481Z,4.10
2023-06-30T22:40:20.807Z,4.13
2023-06-30T22:42:48.679Z,4.80
2023-06-30T22:45:15.744Z,4.53
2023-06-30T22:47:42.789Z,4.85
2023-06-30T22:50:10.108Z,4.50
2023-06-30T22:52:40.034Z,4.25
2023-06-30T22:55:10.711Z,4.60
2023-06-30T22:57:37.922Z,4.50
2023-06-30T23:00:06.375Z,4.70
2023-06-30T23:02:33.448Z,3.83
2023-06-30T23:05:00.568Z,4.47
2023-06-30T23:07:27.886Z,5.00
2023-06-30T23:09:54.796Z,5.00
2023-06-30T23:12:21.834Z,4.43
2023-06-30T23:14:48.768Z,4.50
2023-06-30T23:17:21.115Z,4.20
2023-06-30T23:19:49.241Z,4.07
2023-06-30T23:22:19.986Z,4.03
2023-06-30T23:24:51.173Z,4.12
2023-06-30T23:27:19.506Z,4.22
2023-06-30T23:29:50.353Z,4.43
2023-06-30T23:32:20.500Z,4.12
2023-06-30T23:34:49.078Z,3.78
2023-06-30T23:37:18.629Z,4.68
2023-06-30T23:42:15.703Z,3.58
2023-06-30T23:44:42.692Z,4.32
2023-06-30T23:47:16.972Z,4.75
2023-06-30T23:49:44.201Z,4.70
2023-06-30T23:52:11.245Z,4.78
2023-06-30T23:54:38.200Z,3.58
2023-06-30T23:57:05.770Z,4.22
2023-06-30T23:59:33.124Z,4.80
